KLEX

Blue Grass Airport

Lexington, Kentucky, USA
METAR KLEX 181437Z VRB04KT 9SM BKN011 25/22 A3000 RMK AO2 CIG 008V014 T02500222
Observed Flight Rules
Aug-18 @ 14:37 UTC (15 minutes ago) Marginal Visual Flight Rules
Wind Visibility Clouds
Variable at 4 knots 9 miles
  • Broken at 1,100' AGL
Temperatures Readings
Current 25°C / 77°F
Dewpoint 22°C / 72°F
Humidity 83%
Altimeter 30" Hg
Pressure 1016 hPa
Elevation 300
METAR KLEX 181437Z VRB04KT 9SM BKN011 25/22 A3000 RMK AO2 CIG 008V014 T02500222
Observed Flight Rules
Aug-18 @ 14:37 UTC
(15 minutes ago)
MVFR
Wind Visibility
Variable at 4 knots 9 miles
Clouds
  • Broken at 1,100' AGL
Temperature Dewpoint
25°C / 77°F 22°C / 72°F
Humidity Altimeter Pressure
83% 30" Hg 1016 hPa